COFK1: Verdigris River, Coffeyville Ks

Data processed at Fri Jun 05 2020 23:15


All information presented herein is the property of the government of the United States of America and may be revised or deleted at any time without prior notice.
Dissemination of this information without the expressed written consent of the Public Affairs Office, Tulsa District U.S. Army Corps of Engineers is strictly prohibited.
These data are gathered electronically and, as presented, have not undergone any form of quality control. These data are not guaranteed to be valid or correct.
Go to home page.
Go to station list.
Go to home page.

Upstream stations:

Downstream station:
Previous Day
Next Day
Current Day
    
SHEF ID:       COFK1     VERDIGRIS R AT COFFEYVILLE, KS
STATION TYPE:  
Regulating: Stage =    28.00, Flow =    31353

                STAGE  RIV-FLOW  BAT-LOAD
                   ft       cfs      volt
              Ccp-Rev   Ccp-Rev   Ccp-Rev
(US/Central)
06/05 00:00      8.84      5415     13.30
06/05 01:00      8.98      5592     13.30
06/05 02:00      9.09      5730     13.30
06/05 03:00      9.17      5830     13.30
06/05 04:00      9.27      5956     13.30
06/05 05:00      9.32      6018     13.30
06/05 06:00      9.37      6081     13.30
06/05 07:00      9.40      6119     13.30
06/05 08:00      9.43      6156     13.36
06/05 09:00      9.45      6181     13.83
06/05 10:00      9.45      6181     13.65
06/05 11:00      9.48      6219     13.53
06/05 12:00      9.50      6244     13.48
06/05 13:00      9.49      6231     13.36
06/05 14:00      9.50      6244     13.36
06/05 15:00      9.50      6244     13.36
06/05 16:00      9.51      6256     14.00
06/05 17:00      9.50      6244     13.77
06/05 18:00      9.50      6244     13.59
06/05 19:00      9.49      6231     13.53
06/05 20:00      9.47      6206     13.42
06/05 21:00      9.46      6194     13.36
06/05 22:00      9.46      ----     13.36
06/05 23:00      ----      ----      ----